Time;durP1;ratioP1;P1;durP2;ratioP2;P2;SDS_P1;SDS_P2;PMS_P1;PMS_P2;Temp;Humidity;BMP_temperature;BMP_pressure;BME280_temperature;BME280_humidity;BME280_pressure;Samples;Min_cycle;Max_cycle;Signal;HPM_P1;HPM_P2
2022/09/10 00:01:38;;;;;;;14.70;13.20;;;;;;;;;;5034103;28;20072;-82
2022/09/10 00:04:07;;;;;;;13.95;12.68;;;;;;;;;;5034016;28;20380;-82
2022/09/10 00:06:34;;;;;;;14.13;12.70;;;;;;;;;;5034018;28;20025;-81
2022/09/10 00:09:00;;;;;;;13.52;12.20;;;;;;;;;;5033940;28;20494;-82
2022/09/10 00:11:29;;;;;;;13.07;11.77;;;;;;;;;;5033828;28;20032;-81
2022/09/10 00:13:56;;;;;;;13.80;12.30;;;;;;;;;;5033909;28;20117;-82
2022/09/10 00:16:22;;;;;;;14.60;13.10;;;;;;;;;;5033615;28;20029;-82
2022/09/10 00:18:49;;;;;;;15.75;13.65;;;;;;;;;;5033808;28;20112;-82
2022/09/10 00:21:16;;;;;;;13.95;12.68;;;;;;;;;;5033765;28;20021;-82
2022/09/10 00:23:44;;;;;;;13.82;12.63;;;;;;;;;;5033614;28;20022;-82
2022/09/10 00:26:29;;;;;;;12.90;11.75;;;;;;;;;;5033371;28;20033;-82
2022/09/10 00:28:58;;;;;;;13.40;12.25;;;;;;;;;;5033489;28;20018;-82
2022/09/10 00:31:24;;;;;;;14.05;12.63;;;;;;;;;;5033589;28;20021;-82
2022/09/10 00:33:51;;;;;;;16.23;14.50;;;;;;;;;;5033242;28;20048;-82
2022/09/10 00:36:21;;;;;;;15.18;13.73;;;;;;;;;;5033504;28;20022;-82
2022/09/10 00:38:49;;;;;;;14.93;13.60;;;;;;;;;;5033373;28;20447;-82
2022/09/10 00:41:16;;;;;;;14.82;13.60;;;;;;;;;;5033289;28;20411;-82
2022/09/10 00:44:01;;;;;;;14.63;13.23;;;;;;;;;;5033250;28;20488;-82
2022/09/10 00:46:46;;;;;;;14.82;13.32;;;;;;;;;;5033281;28;20021;-82
2022/09/10 00:49:48;;;;;;;16.42;14.95;;;;;;;;;;5033227;28;20476;-82
2022/09/10 00:52:14;;;;;;;16.10;14.30;;;;;;;;;;4933828;29;20064;-81
2022/09/10 00:54:42;;;;;;;15.60;14.27;;;;;;;;;;4933969;29;20111;-82
2022/09/10 00:57:15;;;;;;;15.60;14.00;;;;;;;;;;4933600;29;20043;-82
2022/09/10 00:59:44;;;;;;;16.25;14.38;;;;;;;;;;4954820;28;20042;-81
2022/09/10 01:02:10;;;;;;;17.02;15.32;;;;;;;;;;5032920;28;20021;-81
2022/09/10 01:04:38;;;;;;;16.10;14.55;;;;;;;;;;5033034;28;20131;-82
2022/09/10 01:07:05;;;;;;;14.57;13.18;;;;;;;;;;5032817;28;20543;-82
2022/09/10 01:09:31;;;;;;;15.40;13.95;;;;;;;;;;5015228;28;20447;-82
2022/09/10 01:12:16;;;;;;;14.35;13.05;;;;;;;;;;5032047;28;20022;-82
2022/09/10 01:15:00;;;;;;;15.32;13.93;;;;;;;;;;5032767;28;20109;-82
2022/09/10 01:17:26;;;;;;;;;;;;;;;;;;5033225;28;20025;-82
2022/09/10 01:19:58;;;;;;;15.05;13.50;;;;;;;;;;5032728;28;19912;-81
2022/09/10 01:22:28;;;;;;;14.40;13.00;;;;;;;;;;5032587;28;20033;-82
2022/09/10 01:25:07;;;;;;;14.50;13.20;;;;;;;;;;5032721;28;20018;-82
2022/09/10 01:27:35;;;;;;;14.68;13.27;;;;;;;;;;5032645;28;20034;-81
2022/09/10 01:30:08;;;;;;;14.45;12.95;;;;;;;;;;5032623;28;20025;-81
2022/09/10 01:32:38;;;;;;;15.05;13.65;;;;;;;;;;5032677;28;20087;-82
2022/09/10 01:35:13;;;;;;;14.10;12.68;;;;;;;;;;5032261;28;20049;-82
2022/09/10 01:37:40;;;;;;;15.00;13.52;;;;;;;;;;5032539;28;20041;-82
2022/09/10 01:40:07;;;;;;;13.85;12.55;;;;;;;;;;5032396;28;20021;-82
2022/09/10 01:42:36;;;;;;;14.35;12.95;;;;;;;;;;5032393;28;20033;-82
2022/09/10 01:45:02;;;;;;;14.05;12.85;;;;;;;;;;5032558;28;20022;-81
2022/09/10 01:47:47;;;;;;;14.02;12.82;;;;;;;;;;5032488;28;20476;-82
2022/09/10 01:50:13;;;;;;;;;;;;;;;;;;5032948;28;20095;-82
2022/09/10 01:52:50;;;;;;;14.57;13.13;;;;;;;;;;5032297;28;20371;-82
2022/09/10 01:55:16;;;;;;;13.35;12.15;;;;;;;;;;5032541;28;20033;-82
2022/09/10 01:58:01;;;;;;;13.88;12.57;;;;;;;;;;5032076;28;20025;-81
2022/09/10 02:00:27;;;;;;;13.70;12.50;;;;;;;;;;5032173;28;20018;-82
2022/09/10 02:02:58;;;;;;;14.23;12.80;;;;;;;;;;5032340;28;20029;-82
2022/09/10 02:05:27;;;;;;;14.65;13.35;;;;;;;;;;5032175;28;20022;-82
2022/09/10 02:07:57;;;;;;;14.35;13.00;;;;;;;;;;5032237;28;20039;-82
2022/09/10 02:10:23;;;;;;;14.98;13.73;;;;;;;;;;5031979;28;20415;-82
2022/09/10 02:12:49;;;;;;;14.55;13.27;;;;;;;;;;5032372;28;20079;-81
2022/09/10 02:15:15;;;;;;;14.38;13.07;;;;;;;;;;5032020;28;20053;-81
2022/09/10 02:17:42;;;;;;;15.98;14.48;;;;;;;;;;5032180;28;20080;-81
2022/09/10 02:20:12;;;;;;;16.00;14.50;;;;;;;;;;5032174;28;20029;-82
2022/09/10 02:22:40;;;;;;;14.57;13.27;;;;;;;;;;5034388;28;20025;-82
2022/09/10 02:25:06;;;;;;;17.50;15.70;;;;;;;;;;5035846;28;20029;-82
2022/09/10 02:27:32;;;;;;;16.63;14.23;;;;;;;;;;5035767;28;20026;-82
2022/09/10 02:29:59;;;;;;;15.15;13.68;;;;;;;;;;5035926;28;20029;-82
2022/09/10 02:32:25;;;;;;;13.45;12.07;;;;;;;;;;5035597;28;20030;-82
2022/09/10 02:34:51;;;;;;;14.60;13.20;;;;;;;;;;5035671;28;20381;-82
2022/09/10 02:37:18;;;;;;;15.32;13.70;;;;;;;;;;5035635;28;20025;-81
2022/09/10 02:39:45;;;;;;;22.48;20.27;;;;;;;;;;5035828;28;20025;-82
2022/09/10 02:42:14;;;;;;;25.88;23.20;;;;;;;;;;5035429;28;20476;-81
2022/09/10 02:44:40;;;;;;;19.60;17.70;;;;;;;;;;5035585;28;20026;-82
2022/09/10 02:47:06;;;;;;;13.50;12.30;;;;;;;;;;5035414;28;20024;-82
2022/09/10 02:49:33;;;;;;;14.60;13.27;;;;;;;;;;5035342;28;20033;-81
2022/09/10 02:52:01;;;;;;;14.10;12.90;;;;;;;;;;5035545;28;20447;-82
2022/09/10 02:54:28;;;;;;;13.35;12.07;;;;;;;;;;5035209;28;20033;-82
2022/09/10 02:56:55;;;;;;;13.18;11.98;;;;;;;;;;5035348;28;20033;-81
2022/09/10 02:59:22;;;;;;;12.25;11.05;;;;;;;;;;5035139;28;20026;-82
2022/09/10 03:01:48;;;;;;;12.68;11.48;;;;;;;;;;5035284;28;20026;-82
2022/09/10 03:04:14;;;;;;;13.02;11.88;;;;;;;;;;5035023;28;20100;-81
2022/09/10 03:06:42;;;;;;;13.18;11.88;;;;;;;;;;5035230;28;20056;-81
2022/09/10 03:09:08;;;;;;;12.73;11.52;;;;;;;;;;5035152;28;20018;-82
2022/09/10 03:11:39;;;;;;;12.02;11.02;;;;;;;;;;5034984;28;20108;-81
2022/09/10 03:14:05;;;;;;;12.75;11.57;;;;;;;;;;5035096;28;20021;-82
2022/09/10 03:16:31;;;;;;;13.45;12.25;;;;;;;;;;5034840;28;20025;-81
2022/09/10 03:18:57;;;;;;;14.70;13.23;;;;;;;;;;5034927;28;20045;-82
2022/09/10 03:21:24;;;;;;;14.30;13.00;;;;;;;;;;5034797;28;20072;-81
2022/09/10 03:23:51;;;;;;;14.38;12.90;;;;;;;;;;5034858;28;20435;-81
2022/09/10 03:26:18;;;;;;;12.73;11.35;;;;;;;;;;5034640;28;20033;-82
2022/09/10 03:28:45;;;;;;;11.80;10.68;;;;;;;;;;5034767;28;20025;-82
2022/09/10 03:31:12;;;;;;;13.32;12.05;;;;;;;;;;5034611;28;20096;-82
2022/09/10 03:33:38;;;;;;;11.85;10.77;;;;;;;;;;5033773;28;20309;-82
2022/09/10 03:36:04;;;;;;;13.32;12.15;;;;;;;;;;5034638;28;20487;-82
2022/09/10 03:38:31;;;;;;;12.93;11.75;;;;;;;;;;5034376;28;20514;-81
2022/09/10 03:40:57;;;;;;;14.88;13.50;;;;;;;;;;5034610;28;20034;-81
2022/09/10 03:43:24;;;;;;;12.10;11.02;;;;;;;;;;5034180;28;20025;-82
2022/09/10 03:45:50;;;;;;;13.05;11.75;;;;;;;;;;5034371;28;20541;-82
2022/09/10 03:48:17;;;;;;;12.27;11.07;;;;;;;;;;5034061;28;20051;-82
2022/09/10 03:50:43;;;;;;;11.88;10.88;;;;;;;;;;5034416;28;20032;-82
2022/09/10 03:53:10;;;;;;;11.13;10.13;;;;;;;;;;5034268;28;20029;-82
2022/09/10 03:55:36;;;;;;;11.85;10.82;;;;;;;;;;5033699;28;20480;-82
2022/09/10 03:58:04;;;;;;;11.77;10.68;;;;;;;;;;5034187;28;20031;-82
2022/09/10 04:00:31;;;;;;;10.93;9.93;;;;;;;;;;5033909;28;20025;-81
2022/09/10 04:02:57;;;;;;;9.98;9.18;;;;;;;;;;5034082;28;20029;-82
2022/09/10 04:05:26;;;;;;;11.38;10.00;;;;;;;;;;5033872;28;20092;-81
2022/09/10 04:07:53;;;;;;;27.42;19.10;;;;;;;;;;5033930;28;20024;-81
2022/09/10 04:10:19;;;;;;;36.08;24.58;;;;;;;;;;5033946;28;20037;-82
2022/09/10 04:12:47;;;;;;;18.27;15.55;;;;;;;;;;5033831;28;20040;-82
2022/09/10 04:15:13;;;;;;;13.60;12.20;;;;;;;;;;5033857;28;20060;-81
2022/09/10 04:17:39;;;;;;;35.67;27.48;;;;;;;;;;5033567;28;20112;-82
2022/09/10 04:20:05;;;;;;;21.02;18.77;;;;;;;;;;5033857;28;20396;-81
2022/09/10 04:22:31;;;;;;;18.02;16.13;;;;;;;;;;5033456;28;20026;-82
2022/09/10 04:24:58;;;;;;;20.20;17.88;;;;;;;;;;5033699;28;20075;-81
2022/09/10 04:27:25;;;;;;;17.77;15.82;;;;;;;;;;5033251;28;20476;-81
2022/09/10 04:29:52;;;;;;;16.63;15.13;;;;;;;;;;5033536;28;20018;-81
2022/09/10 04:32:18;;;;;;;17.58;15.80;;;;;;;;;;5033565;28;20025;-81
2022/09/10 04:34:44;;;;;;;19.33;17.52;;;;;;;;;;5033283;28;20041;-82
2022/09/10 04:37:11;;;;;;;32.40;29.00;;;;;;;;;;5033980;28;20018;-82
2022/09/10 04:39:37;;;;;;;14.40;13.10;;;;;;;;;;5033291;28;20017;-82
2022/09/10 04:42:03;;;;;;;15.68;14.30;;;;;;;;;;5033302;28;20501;-81
2022/09/10 04:44:31;;;;;;;14.55;13.20;;;;;;;;;;5032906;28;20033;-81
2022/09/10 04:46:57;;;;;;;15.23;13.82;;;;;;;;;;5032568;28;20079;-82
2022/09/10 04:49:23;;;;;;;15.13;13.82;;;;;;;;;;5033338;28;20032;-82
2022/09/10 04:51:50;;;;;;;14.77;13.52;;;;;;;;;;5033126;28;20025;-82
2022/09/10 04:54:16;;;;;;;15.30;14.10;;;;;;;;;;5033210;28;20022;-82
2022/09/10 04:56:42;;;;;;;14.43;13.13;;;;;;;;;;5032856;28;20021;-82
2022/09/10 04:59:09;;;;;;;15.98;14.63;;;;;;;;;;5033154;28;20500;-82
2022/09/10 05:01:36;;;;;;;14.88;13.48;;;;;;;;;;5032906;28;20021;-83
2022/09/10 05:04:02;;;;;;;21.40;18.77;;;;;;;;;;5033076;28;20104;-82
2022/09/10 05:06:28;;;;;;;20.17;18.33;;;;;;;;;;5032976;28;20024;-82
2022/09/10 05:08:54;;;;;;;59.95;41.55;;;;;;;;;;5033015;28;20468;-82
2022/09/10 05:11:22;;;;;;;28.42;23.13;;;;;;;;;;5032861;28;20026;-82
2022/09/10 05:13:48;;;;;;;19.83;18.00;;;;;;;;;;5032732;28;20029;-82
2022/09/10 05:16:14;;;;;;;18.77;17.17;;;;;;;;;;5032880;28;20025;-82
2022/09/10 05:18:40;;;;;;;20.05;18.25;;;;;;;;;;5032666;28;20087;-82
2022/09/10 05:21:06;;;;;;;21.45;19.13;;;;;;;;;;5032825;28;20047;-81
2022/09/10 05:23:33;;;;;;;26.70;20.75;;;;;;;;;;5032623;28;20079;-82
2022/09/10 05:25:59;;;;;;;26.20;23.40;;;;;;;;;;5032667;28;20431;-82
2022/09/10 05:28:25;;;;;;;20.35;18.40;;;;;;;;;;5032832;28;20088;-82
2022/09/10 05:30:51;;;;;;;21.05;19.13;;;;;;;;;;5032557;28;20025;-82
2022/09/10 05:33:17;;;;;;;23.58;20.80;;;;;;;;;;5032346;28;20083;-81
2022/09/10 05:35:43;;;;;;;22.23;20.20;;;;;;;;;;5032266;28;20100;-82
2022/09/10 05:38:12;;;;;;;21.08;19.17;;;;;;;;;;5032536;28;20526;-81
2022/09/10 05:40:41;;;;;;;20.88;18.98;;;;;;;;;;5032481;28;20033;-81
2022/09/10 05:43:07;;;;;;;32.42;26.70;;;;;;;;;;5032327;28;20104;-81
2022/09/10 05:45:34;;;;;;;26.80;23.88;;;;;;;;;;5032497;28;20018;-81
2022/09/10 05:48:00;;;;;;;19.38;17.58;;;;;;;;;;5032259;28;20500;-82
2022/09/10 05:50:27;;;;;;;16.30;15.10;;;;;;;;;;5032341;28;20029;-81
2022/09/10 05:52:53;;;;;;;14.73;13.32;;;;;;;;;;5031934;28;20025;-81
2022/09/10 05:55:19;;;;;;;14.48;13.10;;;;;;;;;;5032267;28;20040;-80
2022/09/10 05:57:45;;;;;;;14.35;13.02;;;;;;;;;;5034400;28;20025;-80
2022/09/10 06:00:11;;;;;;;21.30;19.20;;;;;;;;;;5036270;28;20075;-80
2022/09/10 06:02:38;;;;;;;16.80;15.20;;;;;;;;;;5036211;28;20021;-83
2022/09/10 06:05:04;;;;;;;19.08;17.30;;;;;;;;;;5035925;28;20075;-83
2022/09/10 06:07:30;;;;;;;16.02;14.52;;;;;;;;;;5036120;28;20026;-81
2022/09/10 06:09:56;;;;;;;13.80;12.50;;;;;;;;;;5027874;28;20024;-82
2022/09/10 06:12:23;;;;;;;13.48;12.27;;;;;;;;;;5029732;28;20017;-81
2022/09/10 06:14:49;;;;;;;18.23;16.52;;;;;;;;;;5035980;28;20036;-82
2022/09/10 06:17:18;;;;;;;18.83;16.98;;;;;;;;;;5018366;28;20030;-80
2022/09/10 06:19:45;;;;;;;16.48;14.93;;;;;;;;;;5035905;28;20073;-83
2022/09/10 06:22:11;;;;;;;15.90;14.50;;;;;;;;;;5035620;28;20026;-80
2022/09/10 06:24:38;;;;;;;15.88;14.20;;;;;;;;;;5035955;28;20083;-82
2022/09/10 06:27:04;;;;;;;16.42;15.00;;;;;;;;;;5035789;28;20492;-81
2022/09/10 06:29:32;;;;;;;11.77;10.57;;;;;;;;;;5035864;28;20454;-81
2022/09/10 06:31:58;;;;;;;13.55;12.35;;;;;;;;;;5035571;28;20376;-82
2022/09/10 06:34:24;;;;;;;16.20;14.68;;;;;;;;;;5035599;28;20046;-81
2022/09/10 06:36:50;;;;;;;16.65;15.07;;;;;;;;;;5035484;28;20451;-82
2022/09/10 06:39:17;;;;;;;13.65;12.40;;;;;;;;;;5035667;28;20380;-82
2022/09/10 06:41:43;;;;;;;13.95;12.48;;;;;;;;;;5035640;28;20104;-81
2022/09/10 06:44:09;;;;;;;11.88;10.75;;;;;;;;;;5035367;28;20111;-81
2022/09/10 06:46:36;;;;;;;10.32;9.35;;;;;;;;;;5035576;28;20044;-81
2022/09/10 06:49:03;;;;;;;10.48;9.50;;;;;;;;;;5035268;28;20032;-80
2022/09/10 06:51:29;;;;;;;10.68;9.68;;;;;;;;;;5035465;28;20029;-82
2022/09/10 06:53:56;;;;;;;10.20;9.20;;;;;;;;;;5035327;28;20388;-81
2022/09/10 06:56:23;;;;;;;10.55;9.30;;;;;;;;;;5035269;28;20032;-82
2022/09/10 06:58:49;;;;;;;9.40;8.40;;;;;;;;;;5035237;28;20491;-82
2022/09/10 07:01:16;;;;;;;9.90;8.93;;;;;;;;;;5034991;28;20075;-82
2022/09/10 07:03:42;;;;;;;8.57;7.68;;;;;;;;;;5035118;28;20026;-83
2022/09/10 07:06:10;;;;;;;8.82;8.02;;;;;;;;;;5034830;28;20419;-82
2022/09/10 07:08:36;;;;;;;8.07;7.30;;;;;;;;;;5034029;28;20100;-81
2022/09/10 07:11:04;;;;;;;7.90;7.18;;;;;;;;;;5034799;28;20101;-81
2022/09/10 07:13:33;;;;;;;8.07;6.50;;;;;;;;;;5035051;28;20057;-82
2022/09/10 07:16:00;;;;;;;8.82;7.03;;;;;;;;;;5034741;28;20025;-82
2022/09/10 07:18:27;;;;;;;6.95;6.35;;;;;;;;;;5034828;28;20030;-81
2022/09/10 07:20:53;;;;;;;8.40;7.50;;;;;;;;;;5034859;28;20029;-83
2022/09/10 07:23:21;;;;;;;7.55;6.95;;;;;;;;;;5030868;28;20108;-83
2022/09/10 07:25:47;;;;;;;7.25;6.55;;;;;;;;;;5023069;28;20452;-82
2022/09/10 07:28:14;;;;;;;7.20;6.53;;;;;;;;;;5023462;28;20017;-83
2022/09/10 07:30:41;;;;;;;6.70;6.10;;;;;;;;;;5025388;28;20017;-83
2022/09/10 07:33:09;;;;;;;7.40;6.47;;;;;;;;;;5023787;28;20044;-84
2022/09/10 07:35:36;;;;;;;7.13;6.50;;;;;;;;;;5023117;28;20061;-82
2022/09/10 07:38:06;;;;;;;7.03;6.00;;;;;;;;;;5024752;28;20014;-83
2022/09/10 07:40:32;;;;;;;7.40;6.45;;;;;;;;;;5024674;28;20075;-82
2022/09/10 07:42:59;;;;;;;6.95;6.35;;;;;;;;;;5022768;28;20026;-82
2022/09/10 07:45:26;;;;;;;6.30;5.70;;;;;;;;;;5021974;28;20021;-82
2022/09/10 07:47:53;;;;;;;6.53;5.82;;;;;;;;;;5014665;28;20018;-83
2022/09/10 07:50:19;;;;;;;6.03;5.35;;;;;;;;;;5014496;28;20034;-81
2022/09/10 07:52:45;;;;;;;6.75;6.10;;;;;;;;;;5012457;28;20100;-79
2022/09/10 07:55:12;;;;;;;6.50;5.90;;;;;;;;;;5014545;28;20033;-79
2022/09/10 07:57:39;;;;;;;6.28;5.70;;;;;;;;;;5014259;28;20034;-80
2022/09/10 08:00:13;;;;;;;6.72;6.03;;;;;;;;;;5014164;28;20112;-79
2022/09/10 08:02:41;;;;;;;5.53;5.03;;;;;;;;;;5014113;28;20026;-79
2022/09/10 08:05:09;;;;;;;6.97;5.85;;;;;;;;;;5014395;28;20014;-79
2022/09/10 08:07:36;;;;;;;6.03;5.47;;;;;;;;;;5013863;28;20018;-79
2022/09/10 08:10:04;;;;;;;8.25;5.63;;;;;;;;;;5014317;28;20022;-79
2022/09/10 08:12:31;;;;;;;7.50;6.78;;;;;;;;;;5014017;28;20049;-79
2022/09/10 08:14:57;;;;;;;10.23;9.25;;;;;;;;;;5013878;28;20034;-79
2022/09/10 08:17:23;;;;;;;13.05;11.70;;;;;;;;;;5014203;28;20025;-79
2022/09/10 08:19:49;;;;;;;9.10;7.50;;;;;;;;;;5013833;28;20477;-80
2022/09/10 08:22:17;;;;;;;6.72;6.13;;;;;;;;;;5013633;28;20038;-80
2022/09/10 08:24:43;;;;;;;10.52;9.25;;;;;;;;;;5013486;28;20022;-80
2022/09/10 08:27:10;;;;;;;8.38;6.55;;;;;;;;;;5023025;28;20121;-82
2022/09/10 08:29:36;;;;;;;7.60;6.20;;;;;;;;;;5022356;28;20048;-82
2022/09/10 08:32:03;;;;;;;6.53;5.82;;;;;;;;;;5023433;28;20048;-81
2022/09/10 08:34:30;;;;;;;6.40;5.80;;;;;;;;;;5021543;28;20037;-81
2022/09/10 08:36:58;;;;;;;7.15;6.50;;;;;;;;;;5021921;28;20025;-79
2022/09/10 08:39:24;;;;;;;8.18;7.15;;;;;;;;;;5023678;28;20060;-82
2022/09/10 08:42:02;;;;;;;8.30;6.53;;;;;;;;;;5022615;28;20412;-80
2022/09/10 08:44:35;;;;;;;7.35;6.63;;;;;;;;;;5020457;28;20037;-80
2022/09/10 08:47:20;;;;;;;6.60;6.00;;;;;;;;;;5021553;28;20475;-79
2022/09/10 08:50:12;;;;;;;12.95;11.55;;;;;;;;;;5019996;28;20449;-79
2022/09/10 08:52:41;;;;;;;8.48;6.63;;;;;;;;;;4986156;28;20040;-80
2022/09/10 08:55:16;;;;;;;7.40;6.38;;;;;;;;;;5025030;28;20113;-79
2022/09/10 08:57:44;;;;;;;6.50;5.88;;;;;;;;;;5033223;28;20036;-80
2022/09/10 09:00:14;;;;;;;9.00;7.10;;;;;;;;;;5031795;28;20047;-80
2022/09/10 09:02:53;;;;;;;6.75;6.00;;;;;;;;;;5032949;28;20570;-79
2022/09/10 09:05:21;;;;;;;6.57;5.53;;;;;;;;;;5032981;28;20021;-80
2022/09/10 09:07:48;;;;;;;7.60;5.68;;;;;;;;;;5032877;28;20025;-83
2022/09/10 09:10:35;;;;;;;6.13;5.63;;;;;;;;;;5032979;28;20026;-81
2022/09/10 09:13:20;;;;;;;7.38;6.68;;;;;;;;;;5032566;28;20053;-81
2022/09/10 09:15:50;;;;;;;7.18;6.10;;;;;;;;;;5032476;28;20026;-80
2022/09/10 09:18:45;;;;;;;7.82;6.68;;;;;;;;;;5032976;28;20025;-80
2022/09/10 09:21:32;;;;;;;6.72;6.07;;;;;;;;;;5012143;28;20056;-82
2022/09/10 09:23:58;;;;;;;6.43;5.90;;;;;;;;;;5016443;28;20069;-80
2022/09/10 09:26:31;;;;;;;6.57;5.97;;;;;;;;;;5032620;28;20030;-82
2022/09/10 09:29:04;;;;;;;7.90;6.90;;;;;;;;;;5032406;28;20072;-79
2022/09/10 09:31:34;;;;;;;7.17;6.57;;;;;;;;;;5031830;28;20036;-81
2022/09/10 09:34:03;;;;;;;7.25;6.53;;;;;;;;;;5032071;28;20080;-80
2022/09/10 09:36:33;;;;;;;9.15;6.72;;;;;;;;;;5032465;28;20030;-82
2022/09/10 09:39:01;;;;;;;7.65;6.22;;;;;;;;;;5032455;28;20029;-81
2022/09/10 09:41:50;;;;;;;8.18;7.00;;;;;;;;;;5032454;28;20045;-80
2022/09/10 09:44:44;;;;;;;6.97;6.18;;;;;;;;;;5032236;28;20072;-82
2022/09/10 09:47:11;;;;;;;7.38;5.80;;;;;;;;;;5028851;28;20048;-80
2022/09/10 09:49:37;;;;;;;10.68;5.63;;;;;;;;;;5032164;28;20025;-80
2022/09/10 09:52:15;;;;;;;10.13;7.15;;;;;;;;;;5032372;28;20100;-80
2022/09/10 09:54:43;;;;;;;8.52;5.47;;;;;;;;;;5032280;28;20060;-80
2022/09/10 09:57:15;;;;;;;5.93;5.35;;;;;;;;;;5031994;28;20022;-82
2022/09/10 09:59:41;;;;;;;7.65;5.95;;;;;;;;;;5032069;28;20096;-82
2022/09/10 10:02:14;;;;;;;7.78;4.88;;;;;;;;;;5031985;28;20075;-79
2022/09/10 10:04:53;;;;;;;10.48;5.28;;;;;;;;;;5032349;28;20029;-82
2022/09/10 10:07:25;;;;;;;7.78;6.80;;;;;;;;;;5032021;28;20024;-79
2022/09/10 10:09:51;;;;;;;6.85;5.18;;;;;;;;;;5031849;28;20396;-82
2022/09/10 10:12:20;;;;;;;6.25;5.60;;;;;;;;;;5032019;28;20029;-82
2022/09/10 10:14:47;;;;;;;7.65;5.82;;;;;;;;;;5031990;28;20082;-80
2022/09/10 10:17:31;;;;;;;8.48;6.00;;;;;;;;;;5032025;28;20029;-80
2022/09/10 10:20:07;;;;;;;6.53;5.53;;;;;;;;;;5031875;28;20018;-79
2022/09/10 10:22:34;;;;;;;6.30;5.35;;;;;;;;;;5032069;28;20028;-81
2022/09/10 10:25:01;;;;;;;6.32;5.60;;;;;;;;;;5031963;28;20021;-82
2022/09/10 10:27:37;;;;;;;5.22;4.70;;;;;;;;;;5031970;28;20032;-80
2022/09/10 10:30:06;;;;;;;6.00;4.93;;;;;;;;;;5031886;28;20044;-81
2022/09/10 10:32:40;;;;;;;7.97;6.18;;;;;;;;;;5031726;28;20025;-80
2022/09/10 10:35:09;;;;;;;7.15;5.60;;;;;;;;;;5031827;28;20056;-82
2022/09/10 10:38:02;;;;;;;7.95;5.60;;;;;;;;;;5031824;28;20017;-79
2022/09/10 10:40:37;;;;;;;7.85;4.85;;;;;;;;;;4994513;28;20037;-81
2022/09/10 10:43:23;;;;;;;7.82;5.55;;;;;;;;;;5033014;28;20116;-80
2022/09/10 10:45:51;;;;;;;8.85;6.80;;;;;;;;;;5035374;28;20018;-85
2022/09/10 10:48:21;;;;;;;6.82;6.13;;;;;;;;;;5035434;28;20022;-79
2022/09/10 10:50:47;;;;;;;7.38;6.00;;;;;;;;;;5035367;28;20022;-80
2022/09/10 10:53:17;;;;;;;7.43;4.80;;;;;;;;;;5035358;28;20025;-80
2022/09/10 10:56:09;;;;;;;7.70;4.75;;;;;;;;;;5026320;28;20370;-82
2022/09/10 10:58:47;;;;;;;8.90;5.57;;;;;;;;;;4967947;28;20049;-81
2022/09/10 11:01:33;;;;;;;8.80;5.40;;;;;;;;;;5015123;28;20068;-79
2022/09/10 11:04:18;;;;;;;11.55;5.90;;;;;;;;;;5015092;28;20029;-82
2022/09/10 11:06:46;;;;;;;6.15;4.30;;;;;;;;;;5015261;28;20022;-82
2022/09/10 11:09:24;;;;;;;5.55;4.70;;;;;;;;;;5015310;28;20022;-82
2022/09/10 11:12:10;;;;;;;7.97;4.22;;;;;;;;;;5014448;28;20396;-85
2022/09/10 11:14:54;;;;;;;7.70;3.88;;;;;;;;;;5014894;28;20083;-84
2022/09/10 11:17:27;;;;;;;7.80;4.28;;;;;;;;;;5015118;28;20539;-82
2022/09/10 11:20:00;;;;;;;9.75;4.13;;;;;;;;;;5014914;28;20081;-82
2022/09/10 11:22:31;;;;;;;6.78;4.18;;;;;;;;;;5015032;28;20110;-84
2022/09/10 11:25:02;;;;;;;5.63;4.07;;;;;;;;;;5015060;28;20209;-84
2022/09/10 11:27:30;;;;;;;6.78;4.00;;;;;;;;;;5005466;28;20083;-82
2022/09/10 11:30:02;;;;;;;6.95;3.83;;;;;;;;;;5005934;28;20029;-83
2022/09/10 11:32:47;;;;;;;6.57;4.85;;;;;;;;;;5014729;28;20028;-82
2022/09/10 11:35:32;;;;;;;5.95;4.25;;;;;;;;;;5014472;28;20050;-83
2022/09/10 11:38:13;;;;;;;7.93;4.07;;;;;;;;;;5014415;28;20030;-83
2022/09/10 11:40:45;;;;;;;6.78;3.97;;;;;;;;;;5014821;28;20436;-83
2022/09/10 11:43:13;;;;;;;9.20;5.60;;;;;;;;;;5014525;28;20487;-82
2022/09/10 11:45:48;;;;;;;7.55;4.22;;;;;;;;;;5009288;28;20048;-83
2022/09/10 11:48:27;;;;;;;7.10;5.32;;;;;;;;;;5012160;28;20106;-83
2022/09/10 11:50:56;;;;;;;10.27;5.80;;;;;;;;;;4995137;28;20018;-83
2022/09/10 11:53:24;;;;;;;5.70;4.15;;;;;;;;;;4994675;28;20081;-82
2022/09/10 11:56:08;;;;;;;8.55;4.82;;;;;;;;;;4994243;28;20037;-84
2022/09/10 11:58:53;;;;;;;5.78;5.20;;;;;;;;;;5004971;28;20029;-82
2022/09/10 12:01:31;;;;;;;7.07;4.40;;;;;;;;;;5014201;28;20068;-84
2022/09/10 12:04:04;;;;;;;5.93;4.05;;;;;;;;;;5014023;28;20026;-86
2022/09/10 12:06:51;;;;;;;6.05;3.70;;;;;;;;;;5014122;28;20024;-84
2022/09/10 12:09:36;;;;;;;8.50;3.10;;;;;;;;;;5010967;28;20018;-81
2022/09/10 12:12:14;;;;;;;4.53;2.38;;;;;;;;;;5014090;28;20030;-84
2022/09/10 12:14:40;;;;;;;4.35;2.50;;;;;;;;;;5014109;28;20026;-83
2022/09/10 12:17:13;;;;;;;8.02;3.10;;;;;;;;;;5013557;28;20030;-83
2022/09/10 12:19:47;;;;;;;6.72;4.63;;;;;;;;;;5013684;28;20053;-83
2022/09/10 12:22:23;;;;;;;6.32;3.17;;;;;;;;;;5013789;28;20018;-83
2022/09/10 12:24:51;;;;;;;5.82;3.13;;;;;;;;;;5013634;28;20109;-83
2022/09/10 12:27:19;;;;;;;4.97;3.40;;;;;;;;;;5013920;28;20041;-83
2022/09/10 12:29:45;;;;;;;4.22;2.80;;;;;;;;;;5013770;28;20022;-82
2022/09/10 12:32:14;;;;;;;8.68;3.17;;;;;;;;;;5013759;28;20504;-84
2022/09/10 12:34:41;;;;;;;4.97;4.10;;;;;;;;;;5013428;28;20505;-83
2022/09/10 12:37:18;;;;;;;5.65;3.38;;;;;;;;;;5013643;28;20045;-82
2022/09/10 12:39:45;;;;;;;7.05;4.35;;;;;;;;;;5013303;28;20060;-82
2022/09/10 12:42:27;;;;;;;29.80;5.45;;;;;;;;;;5013854;28;20358;-85
2022/09/10 12:44:53;;;;;;;10.85;5.88;;;;;;;;;;5013567;28;20018;-81
2022/09/10 12:47:39;;;;;;;11.52;6.68;;;;;;;;;;5013525;28;20026;-83
2022/09/10 12:50:25;;;;;;;7.53;4.47;;;;;;;;;;5013542;28;20021;-84
2022/09/10 12:52:51;;;;;;;11.38;8.75;;;;;;;;;;5013329;28;20380;-81
2022/09/10 12:55:36;;;;;;;6.72;4.13;;;;;;;;;;5013461;28;20091;-82
2022/09/10 12:58:20;;;;;;;8.05;3.72;;;;;;;;;;5013411;28;20030;-82
2022/09/10 13:00:46;;;;;;;8.75;5.85;;;;;;;;;;5013071;28;20022;-82
2022/09/10 13:03:31;;;;;;;14.85;8.68;;;;;;;;;;5013349;28;20026;-83
2022/09/10 13:05:59;;;;;;;15.88;10.02;;;;;;;;;;5012811;28;20041;-82
2022/09/10 13:08:27;;;;;;;14.60;8.35;;;;;;;;;;5012666;28;20026;-82
2022/09/10 13:11:01;;;;;;;15.40;7.70;;;;;;;;;;5013242;28;20018;-81
2022/09/10 13:13:36;;;;;;;16.33;12.27;;;;;;;;;;5013151;28;20042;-83
2022/09/10 13:16:03;;;;;;;7.00;4.43;;;;;;;;;;5012915;28;20055;-81
2022/09/10 13:18:32;;;;;;;25.80;11.55;;;;;;;;;;5013100;28;20496;-81
2022/09/10 13:20:59;;;;;;;10.43;5.95;;;;;;;;;;5012947;28;20105;-82
2022/09/10 13:23:46;;;;;;;7.35;4.68;;;;;;;;;;5013008;28;20022;-81
2022/09/10 13:26:32;;;;;;;6.25;4.53;;;;;;;;;;5012878;28;20517;-82
2022/09/10 13:29:08;;;;;;;6.63;4.28;;;;;;;;;;5013016;28;20069;-84
2022/09/10 13:31:34;;;;;;;5.70;4.60;;;;;;;;;;5012619;28;20026;-81
2022/09/10 13:34:19;;;;;;;16.75;9.95;;;;;;;;;;5012665;28;20053;-82
2022/09/10 13:36:56;;;;;;;9.43;8.10;;;;;;;;;;5012789;28;20021;-82
2022/09/10 13:39:28;;;;;;;11.85;9.50;;;;;;;;;;5012907;28;20033;-81
2022/09/10 13:41:57;;;;;;;7.18;4.90;;;;;;;;;;5012678;28;20022;-80
2022/09/10 13:44:42;;;;;;;7.20;5.15;;;;;;;;;;5012729;28;20033;-79
2022/09/10 13:47:31;;;;;;;4.97;4.10;;;;;;;;;;5012789;28;20026;-79
2022/09/10 13:49:59;;;;;;;8.13;5.30;;;;;;;;;;5002563;28;20489;-78
2022/09/10 13:52:30;;;;;;;7.93;4.88;;;;;;;;;;5012711;28;20030;-81
2022/09/10 13:54:57;;;;;;;9.48;4.55;;;;;;;;;;5012433;28;20041;-78
2022/09/10 13:57:26;;;;;;;10.80;5.22;;;;;;;;;;5013244;28;20040;-79
2022/09/10 14:00:11;;;;;;;8.55;4.90;;;;;;;;;;5012649;28;20492;-79
2022/09/10 14:02:41;;;;;;;5.38;2.88;;;;;;;;;;5012595;28;20030;-77
2022/09/10 14:05:27;;;;;;;7.32;2.85;;;;;;;;;;5012237;28;20029;-80
2022/09/10 14:07:57;;;;;;;4.57;2.55;;;;;;;;;;5012254;28;20046;-78
2022/09/10 14:10:24;;;;;;;4.72;2.13;;;;;;;;;;5012693;28;20050;-78
2022/09/10 14:12:51;;;;;;;4.15;3.00;;;;;;;;;;5012226;28;20040;-78
2022/09/10 14:15:20;;;;;;;4.65;2.80;;;;;;;;;;5012631;28;20052;-78
2022/09/10 14:17:49;;;;;;;5.53;2.85;;;;;;;;;;5013192;28;20435;-79
2022/09/10 14:20:18;;;;;;;9.98;4.50;;;;;;;;;;5016280;28;20050;-79
2022/09/10 14:22:48;;;;;;;5.45;3.10;;;;;;;;;;5015987;28;20026;-79
2022/09/10 14:25:33;;;;;;;9.02;5.95;;;;;;;;;;5016221;28;20032;-79
2022/09/10 14:28:18;;;;;;;9.48;8.45;;;;;;;;;;5016169;28;20034;-79
2022/09/10 14:30:45;;;;;;;8.07;6.60;;;;;;;;;;5016424;28;20022;-78
2022/09/10 14:33:21;;;;;;;5.50;3.78;;;;;;;;;;5015744;28;20022;-80
2022/09/10 14:35:50;;;;;;;4.57;3.70;;;;;;;;;;5016193;28;20481;-79
2022/09/10 14:38:35;;;;;;;5.60;3.63;;;;;;;;;;5015865;28;20030;-80
2022/09/10 14:41:02;;;;;;;6.53;3.22;;;;;;;;;;5015795;28;20026;-77
2022/09/10 14:43:30;;;;;;;8.20;4.10;;;;;;;;;;5015878;28;20033;-80
2022/09/10 14:45:56;;;;;;;5.47;3.25;;;;;;;;;;5015701;28;20097;-82
2022/09/10 14:48:35;;;;;;;6.72;3.45;;;;;;;;;;5015874;28;20088;-80
2022/09/10 14:51:14;;;;;;;7.20;3.35;;;;;;;;;;5015557;28;20046;-81